createdAt,value
2018-12-19T00:00:23.827Z,30.67
2018-12-19T00:02:53.429Z,29.93
2018-12-19T00:05:22.576Z,32.27
2018-12-19T00:07:51.874Z,32.93
2018-12-19T00:10:22.297Z,31.07
2018-12-19T00:12:51.566Z,32.20
2018-12-19T00:15:20.829Z,33.73
2018-12-19T00:17:50.057Z,29.20
2018-12-19T00:20:19.267Z,34.57
2018-12-19T00:22:48.433Z,30.43
2018-12-19T00:25:17.550Z,32.07
2018-12-19T00:27:46.692Z,31.43
2018-12-19T00:30:15.846Z,36.53
2018-12-19T00:32:44.988Z,32.60
2018-12-19T00:35:14.162Z,36.10
2018-12-19T00:37:43.362Z,31.80
2018-12-19T00:40:12.938Z,33.23
2018-12-19T00:42:42.139Z,32.47
2018-12-19T00:45:12.546Z,32.07
2018-12-19T00:47:41.732Z,33.50
2018-12-19T00:50:10.871Z,34.10
2018-12-19T00:52:40.026Z,34.77
2018-12-19T00:55:09.235Z,32.57
2018-12-19T00:57:41.148Z,30.20
2018-12-19T01:00:10.724Z,30.67
2018-12-19T01:02:39.841Z,29.37
2018-12-19T01:05:09.086Z,27.90
2018-12-19T01:07:38.249Z,29.57
2018-12-19T01:10:07.388Z,28.30
2018-12-19T01:12:36.579Z,29.53
2018-12-19T01:15:06.216Z,27.13
2018-12-19T01:17:35.431Z,28.10
2018-12-19T01:20:04.822Z,25.60
2018-12-19T01:22:34.240Z,28.13
2018-12-19T01:25:03.635Z,32.63
2018-12-19T01:27:32.883Z,27.40
2018-12-19T01:30:02.061Z,32.00
2018-12-19T01:32:31.610Z,32.07
2018-12-19T01:35:00.910Z,28.27
2018-12-19T01:37:30.109Z,32.50
2018-12-19T01:39:59.329Z,31.57
2018-12-19T01:42:28.502Z,32.53
2018-12-19T01:44:57.712Z,36.30
2018-12-19T01:47:26.876Z,35.83
2018-12-19T01:49:56.056Z,33.10
2018-12-19T01:52:25.190Z,37.20
2018-12-19T01:54:54.315Z,33.77
2018-12-19T01:57:23.457Z,34.20
2018-12-19T01:59:52.672Z,33.20
2018-12-19T02:02:21.847Z,32.53
2018-12-19T02:04:50.985Z,32.87
2018-12-19T02:07:20.204Z,34.97
2018-12-19T02:09:49.401Z,31.87
2018-12-19T02:12:18.534Z,30.83
2018-12-19T02:14:47.824Z,32.43
2018-12-19T02:17:16.985Z,33.13
2018-12-19T02:19:46.262Z,31.80
2018-12-19T02:22:15.386Z,33.77
2018-12-19T02:24:44.543Z,34.47
2018-12-19T02:27:13.782Z,30.70
2018-12-19T02:29:43.396Z,34.23
2018-12-19T02:32:12.565Z,33.43
2018-12-19T02:34:41.883Z,34.30
2018-12-19T02:37:11.162Z,34.50
2018-12-19T02:39:40.366Z,35.67
2018-12-19T02:42:10.088Z,34.70
2018-12-19T02:44:39.633Z,34.10
2018-12-19T02:47:08.801Z,33.17
2018-12-19T02:49:37.945Z,37.50
2018-12-19T02:52:07.137Z,36.33
2018-12-19T02:54:36.287Z,36.93
2018-12-19T02:57:05.487Z,40.73
2018-12-19T02:59:34.663Z,36.37
2018-12-19T03:02:05.567Z,37.73
2018-12-19T03:04:34.885Z,36.77
2018-12-19T03:07:04.116Z,37.93
2018-12-19T03:09:33.280Z,38.57
2018-12-19T03:12:02.440Z,36.80
2018-12-19T03:14:31.557Z,35.83
2018-12-19T03:17:00.685Z,37.57
2018-12-19T03:19:29.818Z,36.77
2018-12-19T03:21:58.952Z,39.30
2018-12-19T03:24:28.102Z,37.83
2018-12-19T03:26:57.252Z,36.37
2018-12-19T03:29:26.394Z,40.93
2018-12-19T03:31:55.522Z,36.63
2018-12-19T03:34:24.690Z,36.70
2018-12-19T03:36:53.839Z,37.20
2018-12-19T03:39:23.048Z,37.17
2018-12-19T03:41:52.192Z,38.70
2018-12-19T03:44:24.703Z,36.37
2018-12-19T03:46:53.847Z,37.97
2018-12-19T03:49:22.962Z,39.60
2018-12-19T03:51:52.157Z,39.37
2018-12-19T03:54:21.518Z,39.47
2018-12-19T03:56:51.054Z,36.43
2018-12-19T03:59:20.247Z,37.97
2018-12-19T04:01:49.417Z,37.27
2018-12-19T04:04:18.591Z,36.80
2018-12-19T04:06:47.758Z,36.70
2018-12-19T04:09:16.896Z,34.90
2018-12-19T04:11:46.031Z,34.33
2018-12-19T04:14:15.149Z,39.33
2018-12-19T04:16:44.331Z,39.17
2018-12-19T04:19:13.446Z,35.77
2018-12-19T04:21:42.608Z,35.43
2018-12-19T04:24:11.791Z,35.40
2018-12-19T04:26:41.009Z,39.20
2018-12-19T04:29:10.213Z,35.50
2018-12-19T04:31:39.353Z,37.57
2018-12-19T04:34:08.512Z,37.00
2018-12-19T04:36:37.784Z,37.93
2018-12-19T04:39:06.936Z,36.07
2018-12-19T04:41:36.073Z,38.80
2018-12-19T04:44:05.205Z,36.63
2018-12-19T04:46:34.329Z,35.97
2018-12-19T04:49:03.585Z,32.77
2018-12-19T04:51:32.691Z,38.47
2018-12-19T04:54:01.931Z,35.37
2018-12-19T04:56:31.084Z,36.87
2018-12-19T04:59:00.206Z,37.30
2018-12-19T05:01:29.397Z,36.17
2018-12-19T05:03:58.577Z,38.23
2018-12-19T05:06:27.676Z,36.43
2018-12-19T05:08:56.866Z,34.00
2018-12-19T05:11:26.032Z,38.30
2018-12-19T05:13:55.237Z,36.60
2018-12-19T05:16:24.436Z,36.97
2018-12-19T05:18:53.675Z,37.97
2018-12-19T05:21:22.871Z,37.37
2018-12-19T05:23:52.192Z,34.73
2018-12-19T05:26:24.735Z,34.33
2018-12-19T05:28:53.875Z,34.13
2018-12-19T05:31:23.124Z,34.73
2018-12-19T05:33:52.361Z,37.07
2018-12-19T05:36:21.539Z,37.20
2018-12-19T05:38:51.597Z,39.43
2018-12-19T05:41:20.798Z,35.23
2018-12-19T05:43:49.984Z,38.80
2018-12-19T05:46:19.249Z,40.17
2018-12-19T05:48:48.385Z,38.70
2018-12-19T05:51:17.638Z,39.13
2018-12-19T05:53:46.783Z,35.53
2018-12-19T05:56:15.952Z,36.23
2018-12-19T05:58:45.105Z,33.20
2018-12-19T06:01:14.300Z,38.33
2018-12-19T06:03:43.583Z,40.23
2018-12-19T06:06:12.733Z,36.90
2018-12-19T06:08:42.249Z,39.30
2018-12-19T06:11:11.381Z,34.77
2018-12-19T06:13:40.571Z,38.07
2018-12-19T06:16:09.880Z,36.77
2018-12-19T06:18:39.201Z,38.87
2018-12-19T06:21:11.288Z,40.43
2018-12-19T06:23:40.404Z,35.47
2018-12-19T06:26:09.660Z,38.53
2018-12-19T06:28:38.861Z,37.47
2018-12-19T06:31:08.035Z,40.07
2018-12-19T06:33:37.816Z,37.13
2018-12-19T06:36:06.971Z,42.07
2018-12-19T06:38:36.159Z,48.27
2018-12-19T06:41:05.487Z,39.03
2018-12-19T06:43:34.646Z,44.57
2018-12-19T06:46:03.806Z,41.63
2018-12-19T06:48:32.992Z,41.57
2018-12-19T06:51:02.155Z,41.93
2018-12-19T06:53:35.318Z,40.67
2018-12-19T06:56:04.520Z,40.67
2018-12-19T06:58:33.695Z,40.90
2018-12-19T07:01:02.824Z,45.27
2018-12-19T07:03:31.969Z,41.23
2018-12-19T07:06:01.135Z,42.57
2018-12-19T07:08:30.259Z,38.77
2018-12-19T07:10:59.586Z,41.10
2018-12-19T07:13:28.673Z,39.47
2018-12-19T07:15:57.839Z,42.63
2018-12-19T07:18:27.090Z,40.60
2018-12-19T07:20:56.358Z,40.27
2018-12-19T07:23:25.460Z,40.57
2018-12-19T07:25:54.938Z,42.23
2018-12-19T07:28:24.098Z,42.33
2018-12-19T07:30:53.263Z,40.13
2018-12-19T07:33:22.732Z,44.03
2018-12-19T07:35:51.894Z,45.10
2018-12-19T07:38:21.003Z,41.10
2018-12-19T07:40:50.159Z,39.63
2018-12-19T07:43:19.836Z,42.23
2018-12-19T07:45:54.899Z,41.80
2018-12-19T07:48:24.494Z,42.93
2018-12-19T07:50:53.671Z,38.40
2018-12-19T07:53:22.839Z,41.23
2018-12-19T07:55:52.384Z,41.47
2018-12-19T07:58:21.761Z,38.03
2018-12-19T08:00:50.881Z,40.83
2018-12-19T08:03:20.306Z,36.77
2018-12-19T08:05:49.433Z,39.40
2018-12-19T08:08:18.577Z,35.37
2018-12-19T08:10:52.152Z,39.33
2018-12-19T08:13:18.942Z,42.80
2018-12-19T08:15:48.047Z,35.97
2018-12-19T08:18:17.188Z,39.93
2018-12-19T08:20:46.354Z,42.90
2018-12-19T08:23:15.516Z,39.87
2018-12-19T08:25:44.655Z,40.87
2018-12-19T08:28:13.823Z,36.80
2018-12-19T08:30:42.971Z,35.87
2018-12-19T08:33:12.195Z,39.03
2018-12-19T08:35:41.392Z,40.83
2018-12-19T08:38:10.564Z,34.23
2018-12-19T08:40:39.755Z,35.30
2018-12-19T08:43:09.007Z,39.60
2018-12-19T08:45:38.913Z,36.80
2018-12-19T08:48:08.055Z,32.40
2018-12-19T08:50:37.206Z,37.17
2018-12-19T08:53:06.610Z,39.77
2018-12-19T08:55:35.850Z,38.00
2018-12-19T08:58:04.995Z,34.00
2018-12-19T09:00:34.174Z,38.33
2018-12-19T09:03:03.389Z,35.60
2018-12-19T09:05:32.531Z,34.63
2018-12-19T09:08:01.647Z,34.70
2018-12-19T09:10:34.233Z,37.13
2018-12-19T09:13:03.477Z,33.37
2018-12-19T09:15:38.113Z,34.40
2018-12-19T09:18:07.227Z,31.93
2018-12-19T09:20:36.383Z,37.13
2018-12-19T09:23:05.500Z,32.43
2018-12-19T09:25:34.645Z,34.67
2018-12-19T09:28:04.791Z,35.87
2018-12-19T09:30:33.896Z,34.70
2018-12-19T09:33:03.140Z,36.33
2018-12-19T09:35:32.279Z,33.83
2018-12-19T09:38:01.512Z,31.93
2018-12-19T09:40:30.603Z,31.53
2018-12-19T09:42:59.773Z,41.63
2018-12-19T09:45:31.438Z,33.07
2018-12-19T09:48:00.587Z,31.83
2018-12-19T09:50:29.690Z,32.67
2018-12-19T09:52:58.987Z,32.87
2018-12-19T09:55:28.432Z,31.83
2018-12-19T09:57:57.565Z,34.80
2018-12-19T10:00:28.007Z,35.17
2018-12-19T10:02:57.305Z,31.20
2018-12-19T10:05:26.550Z,35.50
2018-12-19T10:07:55.718Z,31.50
2018-12-19T10:10:24.841Z,36.33
2018-12-19T10:12:54.067Z,34.73
2018-12-19T10:15:23.209Z,36.20
2018-12-19T10:17:52.510Z,33.00
2018-12-19T10:20:21.796Z,36.57
2018-12-19T10:22:52.957Z,32.07
2018-12-19T10:25:22.756Z,32.83
2018-12-19T10:27:51.946Z,34.30
2018-12-19T10:30:21.120Z,32.33
2018-12-19T10:32:52.312Z,31.33
2018-12-19T10:35:21.570Z,32.53
2018-12-19T10:37:50.893Z,32.33
2018-12-19T10:40:20.087Z,36.53
2018-12-19T10:42:49.366Z,31.60
2018-12-19T10:45:18.670Z,34.27
2018-12-19T10:47:47.834Z,30.87
2018-12-19T10:50:17.081Z,28.53
2018-12-19T10:52:46.278Z,34.03
2018-12-19T10:55:18.763Z,33.77
2018-12-19T10:57:47.926Z,34.33
2018-12-19T11:00:22.684Z,35.67
2018-12-19T11:02:51.852Z,33.10
2018-12-19T11:05:21.054Z,35.40
2018-12-19T11:07:50.414Z,33.70
2018-12-19T11:10:19.881Z,36.43
2018-12-19T11:12:49.030Z,36.10
2018-12-19T11:15:18.152Z,34.60
2018-12-19T11:17:47.473Z,37.67
2018-12-19T11:20:16.779Z,35.23
2018-12-19T11:22:46.050Z,34.13
2018-12-19T11:25:15.362Z,36.13
2018-12-19T11:27:44.525Z,33.67
2018-12-19T11:30:14.256Z,39.03
2018-12-19T11:32:43.453Z,39.50
2018-12-19T11:35:12.769Z,40.73
2018-12-19T11:37:41.977Z,39.03
2018-12-19T11:40:11.180Z,41.00
2018-12-19T11:42:40.746Z,39.40
2018-12-19T11:45:10.188Z,44.40
2018-12-19T11:47:39.387Z,41.27
2018-12-19T11:50:08.792Z,44.70
2018-12-19T11:52:37.994Z,44.90
2018-12-19T11:55:07.283Z,46.37
2018-12-19T11:57:36.766Z,45.50
2018-12-19T12:00:07.807Z,46.47
2018-12-19T12:02:37.031Z,52.63
2018-12-19T12:05:06.401Z,48.37
2018-12-19T12:07:35.817Z,48.93
2018-12-19T12:10:06.657Z,47.00
2018-12-19T12:12:35.830Z,54.27
2018-12-19T12:15:05.993Z,47.20
2018-12-19T12:17:35.246Z,47.27
2018-12-19T12:20:05.717Z,53.43
2018-12-19T12:22:34.855Z,50.80
2018-12-19T12:25:05.099Z,57.20
2018-12-19T12:27:34.353Z,53.50
2018-12-19T12:30:05.120Z,43.53
2018-12-19T12:32:34.597Z,50.60
2018-12-19T12:35:04.902Z,53.77
2018-12-19T12:37:34.073Z,53.37
2018-12-19T12:40:04.572Z,61.33
2018-12-19T12:42:33.766Z,51.50
2018-12-19T12:45:03.416Z,56.80
2018-12-19T12:47:32.670Z,57.60
2018-12-19T12:50:01.822Z,55.53
2018-12-19T12:52:31.001Z,48.23
2018-12-19T12:55:00.316Z,45.73
2018-12-19T12:57:29.508Z,48.73
2018-12-19T12:59:58.661Z,48.00
2018-12-19T13:02:27.841Z,53.00
2018-12-19T13:04:57.036Z,50.80
2018-12-19T13:07:26.211Z,55.13
2018-12-19T13:09:55.438Z,49.93
2018-12-19T13:12:24.552Z,48.40
2018-12-19T13:14:53.752Z,52.20
2018-12-19T13:17:22.913Z,50.10
2018-12-19T13:19:52.070Z,47.97
2018-12-19T13:22:21.267Z,50.83
2018-12-19T13:24:50.441Z,47.50
2018-12-19T13:27:19.641Z,47.83
2018-12-19T13:29:48.789Z,44.80
2018-12-19T13:32:18.339Z,43.13
2018-12-19T13:34:47.552Z,45.00
2018-12-19T13:37:16.713Z,43.47
2018-12-19T13:39:46.057Z,50.80
2018-12-19T13:42:15.179Z,44.80
2018-12-19T13:44:44.382Z,49.33
2018-12-19T13:47:13.511Z,45.03
2018-12-19T13:49:42.699Z,44.83
2018-12-19T13:52:12.013Z,47.43
2018-12-19T13:54:41.205Z,43.60
2018-12-19T13:57:10.429Z,44.77
2018-12-19T13:59:39.973Z,47.50
2018-12-19T14:02:09.161Z,49.00
2018-12-19T14:04:38.599Z,46.10
2018-12-19T14:07:08.354Z,46.97
2018-12-19T14:09:37.802Z,47.43
2018-12-19T14:12:12.239Z,42.43
2018-12-19T14:14:38.214Z,41.80
2018-12-19T14:17:07.487Z,43.03
2018-12-19T14:19:36.615Z,45.63
2018-12-19T14:22:05.814Z,46.30
2018-12-19T14:24:35.693Z,43.63
2018-12-19T14:27:04.895Z,48.23
2018-12-19T14:29:34.090Z,40.73
2018-12-19T14:32:03.230Z,41.47
2018-12-19T14:34:32.395Z,45.83
2018-12-19T14:37:01.683Z,43.73
2018-12-19T14:39:30.827Z,43.67
2018-12-19T14:42:00.037Z,43.43
2018-12-19T14:44:29.203Z,48.50
2018-12-19T14:46:58.349Z,45.17
2018-12-19T14:49:27.496Z,45.63
2018-12-19T14:51:56.675Z,43.33
2018-12-19T14:54:25.862Z,52.10
2018-12-19T14:56:54.993Z,51.00
2018-12-19T14:59:24.167Z,49.93
2018-12-19T15:01:53.336Z,50.23
2018-12-19T15:04:22.513Z,51.60
2018-12-19T15:06:51.722Z,49.97
2018-12-19T15:09:20.986Z,53.00
2018-12-19T15:11:50.100Z,52.07
2018-12-19T15:14:19.252Z,54.57
2018-12-19T15:16:48.454Z,49.70
2018-12-19T15:19:17.674Z,48.13
2018-12-19T15:21:46.844Z,57.03
2018-12-19T15:24:16.021Z,54.83
2018-12-19T15:26:45.267Z,53.63
2018-12-19T15:29:14.426Z,49.13
2018-12-19T15:31:43.580Z,52.67
2018-12-19T15:34:12.782Z,48.40
2018-12-19T15:36:45.384Z,60.07
2018-12-19T15:39:14.535Z,61.67
2018-12-19T15:41:43.732Z,66.87
2018-12-19T15:44:12.913Z,66.70
2018-12-19T15:46:42.031Z,61.23
2018-12-19T15:49:11.276Z,63.90
2018-12-19T15:51:40.491Z,60.37
2018-12-19T15:54:09.703Z,59.07
2018-12-19T15:56:38.861Z,58.60
2018-12-19T15:59:08.008Z,56.43
2018-12-19T16:01:37.199Z,59.10
2018-12-19T16:04:06.336Z,59.63
2018-12-19T16:06:35.683Z,64.20
2018-12-19T16:09:05.926Z,61.10
2018-12-19T16:11:35.067Z,60.13
2018-12-19T16:14:04.318Z,57.77
2018-12-19T16:16:33.923Z,59.70
2018-12-19T16:19:03.267Z,74.60
2018-12-19T16:21:32.459Z,69.57
2018-12-19T16:24:01.964Z,63.93
2018-12-19T16:26:31.174Z,69.57
2018-12-19T16:29:00.383Z,66.30
2018-12-19T16:31:32.547Z,70.00
2018-12-19T16:34:01.878Z,75.40
2018-12-19T16:36:31.044Z,77.83
2018-12-19T16:39:00.233Z,76.30
2018-12-19T16:41:29.412Z,71.37
2018-12-19T16:43:58.625Z,66.67
2018-12-19T16:46:28.031Z,70.37
2018-12-19T16:48:57.218Z,74.33
2018-12-19T16:51:26.404Z,66.50
2018-12-19T16:53:55.598Z,78.30
2018-12-19T16:56:24.807Z,82.17
2018-12-19T16:58:54.259Z,73.87
2018-12-19T17:01:23.830Z,72.70
2018-12-19T17:03:53.068Z,68.40
2018-12-19T17:06:22.242Z,71.90
2018-12-19T17:08:51.404Z,76.13
2018-12-19T17:11:20.746Z,64.60
2018-12-19T17:13:49.933Z,71.47
2018-12-19T17:16:19.245Z,67.43
2018-12-19T17:18:48.426Z,67.63
2018-12-19T17:21:17.521Z,63.20
2018-12-19T17:23:46.661Z,62.60
2018-12-19T17:26:15.831Z,68.60
2018-12-19T17:28:44.998Z,72.30
2018-12-19T17:31:14.114Z,78.73
2018-12-19T17:33:43.315Z,71.53
2018-12-19T17:36:12.556Z,69.90
2018-12-19T17:38:41.743Z,69.47
2018-12-19T17:41:11.040Z,71.23
2018-12-19T17:43:40.251Z,75.90
2018-12-19T17:46:10.146Z,65.03
2018-12-19T17:48:39.341Z,68.57
2018-12-19T17:51:08.493Z,68.73
2018-12-19T17:53:37.659Z,70.87
2018-12-19T17:56:06.944Z,77.33
2018-12-19T17:58:36.149Z,92.07
2018-12-19T18:01:05.398Z,78.63
2018-12-19T18:03:34.529Z,76.33
2018-12-19T18:06:05.012Z,80.53
2018-12-19T18:08:34.142Z,82.53
2018-12-19T18:11:03.436Z,78.83
2018-12-19T18:13:32.583Z,83.97
2018-12-19T18:16:01.780Z,101.30
2018-12-19T18:21:35.924Z,96.57
2018-12-19T18:24:05.186Z,102.27
2018-12-19T18:26:34.358Z,93.13
2018-12-19T18:29:03.525Z,86.30
2018-12-19T18:31:32.782Z,86.30
2018-12-19T18:34:01.980Z,84.60
2018-12-19T18:36:31.156Z,88.93
2018-12-19T18:39:00.810Z,90.63
2018-12-19T18:41:30.048Z,101.13
2018-12-19T18:43:59.290Z,112.17
2018-12-19T18:46:28.496Z,110.43
2018-12-19T18:48:57.702Z,104.30
2018-12-19T18:51:27.006Z,109.13
2018-12-19T18:53:56.290Z,103.97
2018-12-19T18:56:25.710Z,108.87
2018-12-19T18:58:54.962Z,98.30
2018-12-19T19:01:24.394Z,91.63
2018-12-19T19:03:53.760Z,102.30
2018-12-19T19:06:23.245Z,98.73
2018-12-19T19:08:52.551Z,78.77
2018-12-19T19:11:24.925Z,84.63
2018-12-19T19:13:54.298Z,95.90
2018-12-19T19:16:23.485Z,89.87
2018-12-19T19:18:52.902Z,86.00
2018-12-19T19:21:22.191Z,87.70
2018-12-19T19:23:51.526Z,91.60
2018-12-19T19:26:20.680Z,91.20
2018-12-19T19:29:04.737Z,87.63
2018-12-19T19:31:33.968Z,89.87
2018-12-19T19:34:03.271Z,86.00
2018-12-19T19:36:32.848Z,77.03
2018-12-19T19:39:02.042Z,79.90
2018-12-19T19:41:31.305Z,76.40
2018-12-19T19:44:00.494Z,92.57
2018-12-19T19:46:29.654Z,79.80
2018-12-19T19:48:58.890Z,89.23
2018-12-19T19:51:28.081Z,73.77
2018-12-19T19:53:57.444Z,76.97
2018-12-19T19:56:26.613Z,81.70
2018-12-19T19:58:55.828Z,86.07
2018-12-19T20:01:25.144Z,90.40
2018-12-19T20:03:54.699Z,76.87
2018-12-19T20:06:23.811Z,77.73
2018-12-19T20:08:52.973Z,74.93
2018-12-19T20:11:22.101Z,64.80
2018-12-19T20:13:51.222Z,89.83
2018-12-19T20:16:20.497Z,77.67
2018-12-19T20:18:50.081Z,82.53
2018-12-19T20:21:19.218Z,64.50
2018-12-19T20:23:48.401Z,61.13
2018-12-19T20:26:17.630Z,66.07
2018-12-19T20:28:46.706Z,63.43
2018-12-19T20:31:15.872Z,65.47
2018-12-19T20:33:44.987Z,67.37
2018-12-19T20:36:14.122Z,65.60
2018-12-19T20:38:43.496Z,64.83
2018-12-19T20:41:12.635Z,68.67
2018-12-19T20:43:41.897Z,67.53
2018-12-19T20:46:11.083Z,70.80
2018-12-19T20:48:40.259Z,61.43
2018-12-19T20:51:09.441Z,58.50
2018-12-19T20:53:38.606Z,59.23
2018-12-19T20:56:07.903Z,60.77
2018-12-19T20:58:37.074Z,64.90
2018-12-19T21:01:06.204Z,70.63
2018-12-19T21:03:35.299Z,71.13
2018-12-19T21:06:04.454Z,62.83
2018-12-19T21:08:33.648Z,65.03
2018-12-19T21:11:02.920Z,65.57
2018-12-19T21:13:32.116Z,62.57
2018-12-19T21:16:01.322Z,56.93
2018-12-19T21:18:35.903Z,61.60
2018-12-19T21:21:05.036Z,62.17
2018-12-19T21:23:34.543Z,64.97
2018-12-19T21:26:03.834Z,61.63
2018-12-19T21:28:32.987Z,61.33
2018-12-19T21:31:02.129Z,63.70
2018-12-19T21:33:31.379Z,75.67
2018-12-19T21:36:00.478Z,63.33
2018-12-19T21:38:29.634Z,66.70
2018-12-19T21:40:58.824Z,73.83
2018-12-19T21:43:27.964Z,70.00
2018-12-19T21:45:57.094Z,68.97
2018-12-19T21:48:26.184Z,80.50
2018-12-19T21:50:55.311Z,77.07
2018-12-19T21:53:24.453Z,73.40
2018-12-19T21:55:53.554Z,73.00
2018-12-19T21:58:22.764Z,79.90
2018-12-19T22:00:52.005Z,78.47
2018-12-19T22:03:22.001Z,75.87
2018-12-19T22:05:51.183Z,73.83
2018-12-19T22:08:20.474Z,73.17
2018-12-19T22:10:49.687Z,74.93
2018-12-19T22:13:18.874Z,80.93
2018-12-19T22:15:48.088Z,81.30
2018-12-19T22:18:24.955Z,77.40
2018-12-19T22:20:54.286Z,76.30
2018-12-19T22:23:23.365Z,81.60
2018-12-19T22:25:52.534Z,68.77
2018-12-19T22:28:21.645Z,82.63
2018-12-19T22:30:50.760Z,85.70
2018-12-19T22:33:19.903Z,81.87
2018-12-19T22:35:49.023Z,83.57
2018-12-19T22:38:18.117Z,81.20
2018-12-19T22:40:47.291Z,79.50
2018-12-19T22:43:16.582Z,84.07
2018-12-19T22:45:45.831Z,91.83
2018-12-19T22:48:15.023Z,94.80
2018-12-19T22:50:46.879Z,78.47
2018-12-19T22:53:16.059Z,82.93
2018-12-19T22:55:45.215Z,86.73
2018-12-19T22:58:14.551Z,91.70
2018-12-19T23:00:49.592Z,87.83
2018-12-19T23:03:18.716Z,99.53
2018-12-19T23:05:50.858Z,98.77
2018-12-19T23:08:20.063Z,92.80
2018-12-19T23:10:49.311Z,89.57
2018-12-19T23:13:18.608Z,103.23
2018-12-19T23:15:47.800Z,94.37
2018-12-19T23:18:22.481Z,120.97
2018-12-19T23:20:51.664Z,100.57
2018-12-19T23:23:20.898Z,106.43
2018-12-19T23:25:50.036Z,107.97
2018-12-19T23:28:19.274Z,114.83
2018-12-19T23:30:48.407Z,100.90
2018-12-19T23:33:17.626Z,106.17
2018-12-19T23:35:46.725Z,102.73
2018-12-19T23:38:15.868Z,110.77
2018-12-19T23:40:45.025Z,112.70
2018-12-19T23:43:14.189Z,110.80
2018-12-19T23:45:43.350Z,111.37
2018-12-19T23:48:12.620Z,101.40
2018-12-19T23:50:41.772Z,96.93
2018-12-19T23:53:11.102Z,112.40
2018-12-19T23:55:40.245Z,102.20
2018-12-19T23:58:09.390Z,93.37
